Current | Radar | Forecast | Satellite
Updated: 6:53 AM CDT on March 27, 2017
Observed at Champaign, Illinois
Temperature 42°F
Windchill 37°F
Humidity 92%
Dew Point 40°F
Wind East at 8 mph
Pressure 29.93 in (Steady)
Conditions Clear
Visibility 7.0 miles
UV 0 out of 16
Clouds Clear (CLR) : -
Yesterday's Maximum 63°F
Yesterday's Minimum 46°F
Yesterday's Heating Degree Days 10
Sunrise6:44 AM CDT
Sunset7:12 PM CDT
Moon Rise6:40 AM CDT
Moon Set6:55 PM CDT
Moon PhaseMoon Phase
Waning Crescent
Raw METARMETAR KCMI 271153Z 09007KT 7SM R32R/2600V4500FT CLR 06/04 A2992 RMK AO2 SLP133 T00560044 10094 20056 50001

Champaign, IL

Current Radar

Radar Map
Zoom into radar image
Zoom into animated radar image


Forecast as of 11:08 AM CDT on January 17, 2017 from station KCMI
Forecast source: BestForecast - NWS
Monday

Mostly cloudy skies. High around 65F. Winds SE at 15 to 25 mph.

Monday Night

Cloudy with showers. Low 49F. Winds SE at 10 to 20 mph. Chance of rain 60%.


Scientific forecaster discussion (NWS)

Units: English | Metric

Find the Weather for any City, State or Zipcode, or Country:

U.S. State List | Severe Weather | Tropical Storms | Ski Conditions
United States | Canada | Central America | South America | Asia | Europe | Australia | Africa | Islands

Weather Underground

© Copyright 2017
The Weather Company, LLC